sensor_id;sensor_type;location;lat;lon;timestamp;P1;durP1;ratioP1;P2;durP2;ratioP2
11614;SDS011;5863;52.832;4.758;2023-07-31T00:00:07;3.63;;;1.13;;
11614;SDS011;5863;52.832;4.758;2023-07-31T00:02:34;4.70;;;2.45;;
11614;SDS011;5863;52.832;4.758;2023-07-31T00:05:01;4.70;;;1.40;;
11614;SDS011;5863;52.832;4.758;2023-07-31T00:07:29;3.30;;;1.60;;
11614;SDS011;5863;52.832;4.758;2023-07-31T00:09:56;4.45;;;1.70;;
11614;SDS011;5863;52.832;4.758;2023-07-31T00:12:23;4.78;;;1.35;;
11614;SDS011;5863;52.832;4.758;2023-07-31T00:14:50;3.75;;;1.38;;
11614;SDS011;5863;52.832;4.758;2023-07-31T00:17:17;3.15;;;1.30;;
11614;SDS011;5863;52.832;4.758;2023-07-31T00:19:43;6.20;;;2.10;;
11614;SDS011;5863;52.832;4.758;2023-07-31T00:22:11;5.00;;;1.33;;
11614;SDS011;5863;52.832;4.758;2023-07-31T00:24:39;4.95;;;1.60;;
11614;SDS011;5863;52.832;4.758;2023-07-31T00:27:05;7.93;;;2.30;;
11614;SDS011;5863;52.832;4.758;2023-07-31T00:29:32;7.88;;;2.13;;
11614;SDS011;5863;52.832;4.758;2023-07-31T00:31:59;7.60;;;2.00;;
11614;SDS011;5863;52.832;4.758;2023-07-31T00:34:26;7.60;;;2.10;;
11614;SDS011;5863;52.832;4.758;2023-07-31T00:36:52;12.43;;;2.60;;
11614;SDS011;5863;52.832;4.758;2023-07-31T00:39:19;10.55;;;2.30;;
11614;SDS011;5863;52.832;4.758;2023-07-31T00:41:47;10.60;;;2.53;;
11614;SDS011;5863;52.832;4.758;2023-07-31T00:44:14;7.72;;;2.13;;
11614;SDS011;5863;52.832;4.758;2023-07-31T00:46:40;10.95;;;1.77;;
11614;SDS011;5863;52.832;4.758;2023-07-31T00:49:08;8.65;;;1.95;;
11614;SDS011;5863;52.832;4.758;2023-07-31T00:51:36;8.55;;;2.10;;
11614;SDS011;5863;52.832;4.758;2023-07-31T00:54:02;9.30;;;3.15;;
11614;SDS011;5863;52.832;4.758;2023-07-31T00:56:30;9.05;;;3.40;;
11614;SDS011;5863;52.832;4.758;2023-07-31T00:58:58;7.50;;;2.90;;
11614;SDS011;5863;52.832;4.758;2023-07-31T01:01:25;10.38;;;3.60;;
11614;SDS011;5863;52.832;4.758;2023-07-31T01:03:51;8.88;;;3.17;;
11614;SDS011;5863;52.832;4.758;2023-07-31T01:06:22;9.25;;;4.13;;
11614;SDS011;5863;52.832;4.758;2023-07-31T01:08:58;11.10;;;3.78;;
11614;SDS011;5863;52.832;4.758;2023-07-31T01:11:28;10.27;;;3.47;;
11614;SDS011;5863;52.832;4.758;2023-07-31T01:13:58;11.13;;;3.85;;
11614;SDS011;5863;52.832;4.758;2023-07-31T01:16:25;10.20;;;3.42;;
11614;SDS011;5863;52.832;4.758;2023-07-31T01:18:52;11.82;;;3.78;;
11614;SDS011;5863;52.832;4.758;2023-07-31T01:21:22;12.20;;;3.70;;
11614;SDS011;5863;52.832;4.758;2023-07-31T01:24:05;9.13;;;3.53;;
11614;SDS011;5863;52.832;4.758;2023-07-31T01:26:45;7.15;;;3.35;;
11614;SDS011;5863;52.832;4.758;2023-07-31T01:29:17;10.60;;;3.58;;
11614;SDS011;5863;52.832;4.758;2023-07-31T01:31:51;13.18;;;3.75;;
11614;SDS011;5863;52.832;4.758;2023-07-31T01:34:21;9.38;;;3.72;;
11614;SDS011;5863;52.832;4.758;2023-07-31T01:36:48;10.25;;;3.08;;
11614;SDS011;5863;52.832;4.758;2023-07-31T01:39:15;12.63;;;3.80;;
11614;SDS011;5863;52.832;4.758;2023-07-31T01:41:42;11.50;;;3.70;;
11614;SDS011;5863;52.832;4.758;2023-07-31T01:44:10;5.82;;;3.08;;
11614;SDS011;5863;52.832;4.758;2023-07-31T01:46:36;9.23;;;3.47;;
11614;SDS011;5863;52.832;4.758;2023-07-31T01:49:03;10.18;;;3.42;;
11614;SDS011;5863;52.832;4.758;2023-07-31T01:51:30;10.98;;;3.22;;
11614;SDS011;5863;52.832;4.758;2023-07-31T01:53:59;10.23;;;3.65;;
11614;SDS011;5863;52.832;4.758;2023-07-31T01:56:25;8.05;;;3.30;;
11614;SDS011;5863;52.832;4.758;2023-07-31T01:58:52;13.82;;;3.75;;
11614;SDS011;5863;52.832;4.758;2023-07-31T02:01:20;8.43;;;3.75;;
11614;SDS011;5863;52.832;4.758;2023-07-31T02:03:47;12.73;;;3.85;;
11614;SDS011;5863;52.832;4.758;2023-07-31T02:06:13;6.38;;;3.60;;
11614;SDS011;5863;52.832;4.758;2023-07-31T02:08:40;13.63;;;4.70;;
11614;SDS011;5863;52.832;4.758;2023-07-31T02:11:07;8.48;;;3.72;;
11614;SDS011;5863;52.832;4.758;2023-07-31T02:13:33;10.65;;;3.78;;
11614;SDS011;5863;52.832;4.758;2023-07-31T02:16:00;16.63;;;4.28;;
11614;SDS011;5863;52.832;4.758;2023-07-31T02:20:56;11.40;;;3.90;;
11614;SDS011;5863;52.832;4.758;2023-07-31T02:23:23;9.88;;;4.13;;
11614;SDS011;5863;52.832;4.758;2023-07-31T02:25:50;10.05;;;3.38;;
11614;SDS011;5863;52.832;4.758;2023-07-31T02:28:16;16.80;;;3.40;;
11614;SDS011;5863;52.832;4.758;2023-07-31T02:30:43;9.65;;;3.20;;
11614;SDS011;5863;52.832;4.758;2023-07-31T02:33:11;12.20;;;3.83;;
11614;SDS011;5863;52.832;4.758;2023-07-31T02:35:39;12.32;;;3.60;;
11614;SDS011;5863;52.832;4.758;2023-07-31T02:38:05;20.58;;;4.15;;
11614;SDS011;5863;52.832;4.758;2023-07-31T02:40:32;16.10;;;4.47;;
11614;SDS011;5863;52.832;4.758;2023-07-31T02:42:59;15.95;;;4.45;;
11614;SDS011;5863;52.832;4.758;2023-07-31T02:45:25;18.88;;;5.05;;
11614;SDS011;5863;52.832;4.758;2023-07-31T02:47:52;18.83;;;5.20;;
11614;SDS011;5863;52.832;4.758;2023-07-31T02:50:19;22.02;;;6.22;;
11614;SDS011;5863;52.832;4.758;2023-07-31T02:52:47;21.02;;;6.32;;
11614;SDS011;5863;52.832;4.758;2023-07-31T02:55:13;15.25;;;6.80;;
11614;SDS011;5863;52.832;4.758;2023-07-31T02:57:40;18.40;;;6.78;;
11614;SDS011;5863;52.832;4.758;2023-07-31T03:00:07;22.45;;;6.40;;
11614;SDS011;5863;52.832;4.758;2023-07-31T03:02:34;18.45;;;6.57;;
11614;SDS011;5863;52.832;4.758;2023-07-31T03:05:01;22.20;;;6.78;;
11614;SDS011;5863;52.832;4.758;2023-07-31T03:07:28;19.98;;;6.32;;
11614;SDS011;5863;52.832;4.758;2023-07-31T03:09:56;22.55;;;6.97;;
11614;SDS011;5863;52.832;4.758;2023-07-31T03:12:23;20.90;;;6.55;;
11614;SDS011;5863;52.832;4.758;2023-07-31T03:14:49;18.00;;;6.30;;
11614;SDS011;5863;52.832;4.758;2023-07-31T03:17:16;21.85;;;7.32;;
11614;SDS011;5863;52.832;4.758;2023-07-31T03:19:43;27.48;;;7.05;;
11614;SDS011;5863;52.832;4.758;2023-07-31T03:22:09;24.30;;;6.70;;
11614;SDS011;5863;52.832;4.758;2023-07-31T03:24:36;27.63;;;7.32;;
11614;SDS011;5863;52.832;4.758;2023-07-31T03:27:05;25.98;;;7.10;;
11614;SDS011;5863;52.832;4.758;2023-07-31T03:29:32;18.77;;;6.35;;
11614;SDS011;5863;52.832;4.758;2023-07-31T03:31:58;20.00;;;5.78;;
11614;SDS011;5863;52.832;4.758;2023-07-31T03:34:25;15.98;;;6.07;;
11614;SDS011;5863;52.832;4.758;2023-07-31T03:36:52;21.77;;;6.80;;
11614;SDS011;5863;52.832;4.758;2023-07-31T03:39:19;19.63;;;6.53;;
11614;SDS011;5863;52.832;4.758;2023-07-31T03:41:45;18.88;;;6.05;;
11614;SDS011;5863;52.832;4.758;2023-07-31T03:44:13;18.83;;;6.03;;
11614;SDS011;5863;52.832;4.758;2023-07-31T03:46:40;19.67;;;6.57;;
11614;SDS011;5863;52.832;4.758;2023-07-31T03:49:07;21.63;;;6.32;;
11614;SDS011;5863;52.832;4.758;2023-07-31T03:51:34;19.52;;;6.47;;
11614;SDS011;5863;52.832;4.758;2023-07-31T03:54:00;23.85;;;6.10;;
11614;SDS011;5863;52.832;4.758;2023-07-31T03:56:30;18.40;;;6.15;;
11614;SDS011;5863;52.832;4.758;2023-07-31T03:58:56;15.13;;;5.90;;
11614;SDS011;5863;52.832;4.758;2023-07-31T04:01:26;12.55;;;4.97;;
11614;SDS011;5863;52.832;4.758;2023-07-31T04:03:53;14.10;;;5.45;;
11614;SDS011;5863;52.832;4.758;2023-07-31T04:06:19;20.02;;;5.85;;
11614;SDS011;5863;52.832;4.758;2023-07-31T04:08:46;18.52;;;5.40;;
11614;SDS011;5863;52.832;4.758;2023-07-31T04:11:13;21.13;;;5.57;;
11614;SDS011;5863;52.832;4.758;2023-07-31T04:13:39;15.73;;;5.70;;
11614;SDS011;5863;52.832;4.758;2023-07-31T04:16:06;17.52;;;5.60;;
11614;SDS011;5863;52.832;4.758;2023-07-31T04:18:34;17.80;;;5.47;;
11614;SDS011;5863;52.832;4.758;2023-07-31T04:21:01;14.02;;;5.30;;
11614;SDS011;5863;52.832;4.758;2023-07-31T04:23:28;10.10;;;4.43;;
11614;SDS011;5863;52.832;4.758;2023-07-31T04:25:55;12.10;;;4.20;;
11614;SDS011;5863;52.832;4.758;2023-07-31T04:28:21;12.10;;;5.03;;
11614;SDS011;5863;52.832;4.758;2023-07-31T04:30:48;18.13;;;5.10;;
11614;SDS011;5863;52.832;4.758;2023-07-31T04:33:15;14.73;;;4.40;;
11614;SDS011;5863;52.832;4.758;2023-07-31T04:35:46;18.80;;;4.70;;
11614;SDS011;5863;52.832;4.758;2023-07-31T04:38:17;12.45;;;4.63;;
11614;SDS011;5863;52.832;4.758;2023-07-31T04:40:43;13.23;;;4.60;;
11614;SDS011;5863;52.832;4.758;2023-07-31T04:43:10;13.70;;;4.75;;
11614;SDS011;5863;52.832;4.758;2023-07-31T04:45:37;14.40;;;4.97;;
11614;SDS011;5863;52.832;4.758;2023-07-31T04:48:04;17.33;;;5.40;;
11614;SDS011;5863;52.832;4.758;2023-07-31T04:50:30;10.40;;;4.60;;
11614;SDS011;5863;52.832;4.758;2023-07-31T04:52:58;14.15;;;4.57;;
11614;SDS011;5863;52.832;4.758;2023-07-31T04:55:25;16.83;;;5.65;;
11614;SDS011;5863;52.832;4.758;2023-07-31T04:57:52;12.88;;;5.25;;
11614;SDS011;5863;52.832;4.758;2023-07-31T05:00:20;13.10;;;4.47;;
11614;SDS011;5863;52.832;4.758;2023-07-31T05:02:46;9.35;;;3.90;;
11614;SDS011;5863;52.832;4.758;2023-07-31T05:05:13;10.15;;;3.80;;
11614;SDS011;5863;52.832;4.758;2023-07-31T05:07:40;12.52;;;3.47;;
11614;SDS011;5863;52.832;4.758;2023-07-31T05:10:08;7.72;;;3.20;;
11614;SDS011;5863;52.832;4.758;2023-07-31T05:12:35;8.40;;;3.03;;
11614;SDS011;5863;52.832;4.758;2023-07-31T05:15:01;8.98;;;3.35;;
11614;SDS011;5863;52.832;4.758;2023-07-31T05:17:28;5.68;;;2.90;;
11614;SDS011;5863;52.832;4.758;2023-07-31T05:19:55;7.65;;;2.97;;
11614;SDS011;5863;52.832;4.758;2023-07-31T05:22:22;9.43;;;3.17;;
11614;SDS011;5863;52.832;4.758;2023-07-31T05:24:48;6.68;;;3.35;;
11614;SDS011;5863;52.832;4.758;2023-07-31T05:27:16;8.50;;;2.80;;
11614;SDS011;5863;52.832;4.758;2023-07-31T05:29:43;5.43;;;2.35;;
11614;SDS011;5863;52.832;4.758;2023-07-31T05:32:10;9.27;;;2.75;;
11614;SDS011;5863;52.832;4.758;2023-07-31T05:34:37;9.18;;;2.78;;
11614;SDS011;5863;52.832;4.758;2023-07-31T05:37:04;10.15;;;2.70;;
11614;SDS011;5863;52.832;4.758;2023-07-31T05:39:31;6.50;;;2.80;;
11614;SDS011;5863;52.832;4.758;2023-07-31T05:41:58;7.88;;;3.00;;
11614;SDS011;5863;52.832;4.758;2023-07-31T05:44:26;6.53;;;2.58;;
11614;SDS011;5863;52.832;4.758;2023-07-31T05:46:53;8.40;;;2.58;;
11614;SDS011;5863;52.832;4.758;2023-07-31T05:49:19;9.50;;;2.45;;
11614;SDS011;5863;52.832;4.758;2023-07-31T05:51:46;8.13;;;2.10;;
11614;SDS011;5863;52.832;4.758;2023-07-31T05:54:13;4.53;;;1.80;;
11614;SDS011;5863;52.832;4.758;2023-07-31T05:56:39;8.93;;;2.10;;
11614;SDS011;5863;52.832;4.758;2023-07-31T05:59:06;5.95;;;1.83;;
11614;SDS011;5863;52.832;4.758;2023-07-31T06:01:35;6.55;;;1.60;;
11614;SDS011;5863;52.832;4.758;2023-07-31T06:04:02;4.90;;;1.50;;
11614;SDS011;5863;52.832;4.758;2023-07-31T06:06:29;4.28;;;1.40;;
11614;SDS011;5863;52.832;4.758;2023-07-31T06:08:56;6.38;;;2.22;;
11614;SDS011;5863;52.832;4.758;2023-07-31T06:11:22;10.65;;;1.70;;
11614;SDS011;5863;52.832;4.758;2023-07-31T06:13:49;10.90;;;2.10;;
11614;SDS011;5863;52.832;4.758;2023-07-31T06:16:16;5.40;;;1.75;;
11614;SDS011;5863;52.832;4.758;2023-07-31T06:18:44;6.68;;;1.67;;
11614;SDS011;5863;52.832;4.758;2023-07-31T06:21:10;7.18;;;2.00;;
11614;SDS011;5863;52.832;4.758;2023-07-31T06:23:37;11.00;;;2.58;;
11614;SDS011;5863;52.832;4.758;2023-07-31T06:26:04;11.35;;;2.30;;
11614;SDS011;5863;52.832;4.758;2023-07-31T06:28:31;9.60;;;2.10;;
11614;SDS011;5863;52.832;4.758;2023-07-31T06:30:58;6.93;;;2.13;;
11614;SDS011;5863;52.832;4.758;2023-07-31T06:33:24;6.57;;;2.08;;
11614;SDS011;5863;52.832;4.758;2023-07-31T06:35:53;15.52;;;2.35;;
11614;SDS011;5863;52.832;4.758;2023-07-31T06:38:21;5.90;;;2.17;;
11614;SDS011;5863;52.832;4.758;2023-07-31T06:40:50;6.35;;;1.80;;
11614;SDS011;5863;52.832;4.758;2023-07-31T06:43:16;8.07;;;2.38;;
11614;SDS011;5863;52.832;4.758;2023-07-31T06:45:43;7.68;;;2.10;;
11614;SDS011;5863;52.832;4.758;2023-07-31T06:48:10;7.05;;;1.98;;
11614;SDS011;5863;52.832;4.758;2023-07-31T06:50:37;10.98;;;2.55;;
11614;SDS011;5863;52.832;4.758;2023-07-31T06:53:05;8.02;;;2.35;;
11614;SDS011;5863;52.832;4.758;2023-07-31T06:55:32;11.25;;;2.20;;
11614;SDS011;5863;52.832;4.758;2023-07-31T06:57:59;5.38;;;2.10;;
11614;SDS011;5863;52.832;4.758;2023-07-31T07:00:25;11.13;;;2.72;;
11614;SDS011;5863;52.832;4.758;2023-07-31T07:02:53;11.68;;;2.13;;
11614;SDS011;5863;52.832;4.758;2023-07-31T07:05:20;9.85;;;2.40;;
11614;SDS011;5863;52.832;4.758;2023-07-31T07:07:48;9.35;;;2.03;;
11614;SDS011;5863;52.832;4.758;2023-07-31T07:10:17;9.57;;;2.10;;
11614;SDS011;5863;52.832;4.758;2023-07-31T07:12:43;8.98;;;2.13;;
11614;SDS011;5863;52.832;4.758;2023-07-31T07:15:10;7.55;;;2.42;;
11614;SDS011;5863;52.832;4.758;2023-07-31T07:17:37;7.45;;;2.17;;
11614;SDS011;5863;52.832;4.758;2023-07-31T07:20:04;9.55;;;2.15;;
11614;SDS011;5863;52.832;4.758;2023-07-31T07:22:31;9.25;;;2.72;;
11614;SDS011;5863;52.832;4.758;2023-07-31T07:24:58;6.70;;;2.45;;
11614;SDS011;5863;52.832;4.758;2023-07-31T07:27:26;8.20;;;2.10;;
11614;SDS011;5863;52.832;4.758;2023-07-31T07:29:53;5.55;;;1.92;;
11614;SDS011;5863;52.832;4.758;2023-07-31T07:32:20;6.38;;;1.95;;
11614;SDS011;5863;52.832;4.758;2023-07-31T07:34:47;10.13;;;2.17;;
11614;SDS011;5863;52.832;4.758;2023-07-31T07:37:14;7.30;;;1.88;;
11614;SDS011;5863;52.832;4.758;2023-07-31T07:39:41;7.90;;;2.30;;
11614;SDS011;5863;52.832;4.758;2023-07-31T07:42:07;10.18;;;1.90;;
11614;SDS011;5863;52.832;4.758;2023-07-31T07:44:35;6.03;;;2.03;;
11614;SDS011;5863;52.832;4.758;2023-07-31T07:47:02;7.68;;;1.95;;
11614;SDS011;5863;52.832;4.758;2023-07-31T07:49:31;7.90;;;1.98;;
11614;SDS011;5863;52.832;4.758;2023-07-31T07:51:57;8.18;;;1.80;;
11614;SDS011;5863;52.832;4.758;2023-07-31T07:54:24;10.43;;;2.17;;
11614;SDS011;5863;52.832;4.758;2023-07-31T07:56:51;3.08;;;1.40;;
11614;SDS011;5863;52.832;4.758;2023-07-31T07:59:17;4.88;;;1.60;;
11614;SDS011;5863;52.832;4.758;2023-07-31T08:01:45;6.70;;;1.85;;
11614;SDS011;5863;52.832;4.758;2023-07-31T08:04:12;6.07;;;1.73;;
11614;SDS011;5863;52.832;4.758;2023-07-31T08:06:39;4.97;;;1.20;;
11614;SDS011;5863;52.832;4.758;2023-07-31T08:09:05;6.07;;;1.60;;
11614;SDS011;5863;52.832;4.758;2023-07-31T08:11:34;6.13;;;1.30;;
11614;SDS011;5863;52.832;4.758;2023-07-31T08:14:01;4.38;;;1.17;;
11614;SDS011;5863;52.832;4.758;2023-07-31T08:16:27;5.22;;;1.50;;
11614;SDS011;5863;52.832;4.758;2023-07-31T08:18:55;5.57;;;1.77;;
11614;SDS011;5863;52.832;4.758;2023-07-31T08:21:22;4.18;;;1.13;;
11614;SDS011;5863;52.832;4.758;2023-07-31T08:23:49;4.30;;;1.55;;
11614;SDS011;5863;52.832;4.758;2023-07-31T08:26:16;7.60;;;1.60;;
11614;SDS011;5863;52.832;4.758;2023-07-31T08:28:43;7.68;;;1.70;;
11614;SDS011;5863;52.832;4.758;2023-07-31T08:31:10;7.80;;;1.77;;
11614;SDS011;5863;52.832;4.758;2023-07-31T08:33:37;4.38;;;1.85;;
11614;SDS011;5863;52.832;4.758;2023-07-31T08:36:05;7.85;;;1.98;;
11614;SDS011;5863;52.832;4.758;2023-07-31T08:38:32;7.40;;;1.77;;
11614;SDS011;5863;52.832;4.758;2023-07-31T08:40:59;8.40;;;2.03;;
11614;SDS011;5863;52.832;4.758;2023-07-31T08:43:26;6.43;;;1.83;;
11614;SDS011;5863;52.832;4.758;2023-07-31T08:45:53;5.65;;;2.10;;
11614;SDS011;5863;52.832;4.758;2023-07-31T08:48:21;8.23;;;2.13;;
11614;SDS011;5863;52.832;4.758;2023-07-31T08:50:49;7.57;;;2.35;;
11614;SDS011;5863;52.832;4.758;2023-07-31T08:53:17;12.80;;;2.85;;
11614;SDS011;5863;52.832;4.758;2023-07-31T08:55:44;9.05;;;2.50;;
11614;SDS011;5863;52.832;4.758;2023-07-31T08:58:10;8.02;;;2.28;;
11614;SDS011;5863;52.832;4.758;2023-07-31T09:00:39;11.27;;;2.70;;
11614;SDS011;5863;52.832;4.758;2023-07-31T09:03:08;6.65;;;2.17;;
11614;SDS011;5863;52.832;4.758;2023-07-31T09:05:39;9.27;;;1.95;;
11614;SDS011;5863;52.832;4.758;2023-07-31T09:08:09;6.72;;;2.05;;
11614;SDS011;5863;52.832;4.758;2023-07-31T09:10:41;7.72;;;1.95;;
11614;SDS011;5863;52.832;4.758;2023-07-31T09:13:08;7.25;;;2.08;;
11614;SDS011;5863;52.832;4.758;2023-07-31T09:15:35;7.90;;;1.90;;
11614;SDS011;5863;52.832;4.758;2023-07-31T09:18:02;5.50;;;1.83;;
11614;SDS011;5863;52.832;4.758;2023-07-31T09:20:30;5.15;;;1.67;;
11614;SDS011;5863;52.832;4.758;2023-07-31T09:22:59;5.72;;;1.75;;
11614;SDS011;5863;52.832;4.758;2023-07-31T09:25:32;5.13;;;1.70;;
11614;SDS011;5863;52.832;4.758;2023-07-31T09:28:01;4.13;;;1.38;;
11614;SDS011;5863;52.832;4.758;2023-07-31T09:30:30;5.55;;;1.67;;
11614;SDS011;5863;52.832;4.758;2023-07-31T09:33:00;11.38;;;2.13;;
11614;SDS011;5863;52.832;4.758;2023-07-31T09:35:28;9.82;;;2.00;;
11614;SDS011;5863;52.832;4.758;2023-07-31T09:37:57;10.38;;;2.30;;
11614;SDS011;5863;52.832;4.758;2023-07-31T09:40:25;6.32;;;2.20;;
11614;SDS011;5863;52.832;4.758;2023-07-31T09:42:53;7.20;;;2.27;;
11614;SDS011;5863;52.832;4.758;2023-07-31T09:45:23;4.88;;;1.95;;
11614;SDS011;5863;52.832;4.758;2023-07-31T09:47:50;9.50;;;2.53;;
11614;SDS011;5863;52.832;4.758;2023-07-31T09:50:16;7.03;;;2.03;;
11614;SDS011;5863;52.832;4.758;2023-07-31T09:52:43;5.97;;;2.00;;
11614;SDS011;5863;52.832;4.758;2023-07-31T09:55:10;8.15;;;2.15;;
11614;SDS011;5863;52.832;4.758;2023-07-31T09:57:37;5.85;;;2.15;;
11614;SDS011;5863;52.832;4.758;2023-07-31T10:00:06;10.27;;;2.47;;
11614;SDS011;5863;52.832;4.758;2023-07-31T10:02:37;11.10;;;2.88;;
11614;SDS011;5863;52.832;4.758;2023-07-31T10:05:04;10.35;;;2.67;;
11614;SDS011;5863;52.832;4.758;2023-07-31T10:07:34;9.90;;;2.78;;
11614;SDS011;5863;52.832;4.758;2023-07-31T10:10:04;7.28;;;2.50;;
11614;SDS011;5863;52.832;4.758;2023-07-31T10:12:32;9.13;;;2.53;;
11614;SDS011;5863;52.832;4.758;2023-07-31T10:14:59;11.68;;;2.70;;
11614;SDS011;5863;52.832;4.758;2023-07-31T10:17:26;9.65;;;2.92;;
11614;SDS011;5863;52.832;4.758;2023-07-31T10:19:57;15.80;;;3.33;;
11614;SDS011;5863;52.832;4.758;2023-07-31T10:22:26;10.50;;;2.63;;
11614;SDS011;5863;52.832;4.758;2023-07-31T10:24:54;8.20;;;2.72;;
11614;SDS011;5863;52.832;4.758;2023-07-31T10:27:23;8.50;;;2.33;;
11614;SDS011;5863;52.832;4.758;2023-07-31T10:29:50;11.95;;;2.47;;
11614;SDS011;5863;52.832;4.758;2023-07-31T10:32:18;10.02;;;2.53;;
11614;SDS011;5863;52.832;4.758;2023-07-31T10:34:46;11.55;;;3.20;;
11614;SDS011;5863;52.832;4.758;2023-07-31T10:37:23;12.40;;;2.42;;
11614;SDS011;5863;52.832;4.758;2023-07-31T10:39:58;11.10;;;2.72;;
11614;SDS011;5863;52.832;4.758;2023-07-31T10:42:30;9.32;;;2.45;;
11614;SDS011;5863;52.832;4.758;2023-07-31T10:44:57;8.38;;;2.92;;
11614;SDS011;5863;52.832;4.758;2023-07-31T10:47:24;10.20;;;2.60;;
11614;SDS011;5863;52.832;4.758;2023-07-31T10:49:52;13.27;;;2.42;;
11614;SDS011;5863;52.832;4.758;2023-07-31T10:52:19;9.15;;;2.35;;
11614;SDS011;5863;52.832;4.758;2023-07-31T10:54:49;14.85;;;3.03;;
11614;SDS011;5863;52.832;4.758;2023-07-31T10:57:20;7.72;;;2.60;;
11614;SDS011;5863;52.832;4.758;2023-07-31T10:59:47;8.35;;;2.67;;
11614;SDS011;5863;52.832;4.758;2023-07-31T11:02:24;10.43;;;2.40;;
11614;SDS011;5863;52.832;4.758;2023-07-31T11:05:07;13.10;;;2.60;;
11614;SDS011;5863;52.832;4.758;2023-07-31T11:07:46;9.90;;;2.80;;
11614;SDS011;5863;52.832;4.758;2023-07-31T11:10:17;8.98;;;2.40;;
11614;SDS011;5863;52.832;4.758;2023-07-31T11:12:45;10.73;;;2.50;;
11614;SDS011;5863;52.832;4.758;2023-07-31T11:15:12;10.45;;;2.72;;
11614;SDS011;5863;52.832;4.758;2023-07-31T11:17:39;10.15;;;2.97;;
11614;SDS011;5863;52.832;4.758;2023-07-31T11:20:06;10.82;;;2.47;;
11614;SDS011;5863;52.832;4.758;2023-07-31T11:22:34;9.23;;;2.47;;
11614;SDS011;5863;52.832;4.758;2023-07-31T11:25:01;6.63;;;2.22;;
11614;SDS011;5863;52.832;4.758;2023-07-31T11:27:30;8.85;;;2.42;;
11614;SDS011;5863;52.832;4.758;2023-07-31T11:30:04;12.75;;;2.58;;
11614;SDS011;5863;52.832;4.758;2023-07-31T11:32:32;10.30;;;2.20;;
11614;SDS011;5863;52.832;4.758;2023-07-31T11:34:58;8.00;;;2.20;;
11614;SDS011;5863;52.832;4.758;2023-07-31T11:37:36;8.85;;;2.55;;
11614;SDS011;5863;52.832;4.758;2023-07-31T11:40:05;8.15;;;2.40;;
11614;SDS011;5863;52.832;4.758;2023-07-31T11:42:34;8.73;;;2.85;;
11614;SDS011;5863;52.832;4.758;2023-07-31T11:45:01;8.57;;;2.50;;
11614;SDS011;5863;52.832;4.758;2023-07-31T11:47:29;9.45;;;3.13;;
11614;SDS011;5863;52.832;4.758;2023-07-31T11:49:59;6.90;;;2.35;;
11614;SDS011;5863;52.832;4.758;2023-07-31T11:52:26;9.10;;;2.33;;
11614;SDS011;5863;52.832;4.758;2023-07-31T11:54:55;9.57;;;2.67;;
11614;SDS011;5863;52.832;4.758;2023-07-31T11:57:22;11.48;;;3.13;;
11614;SDS011;5863;52.832;4.758;2023-07-31T11:59:50;11.48;;;2.60;;
11614;SDS011;5863;52.832;4.758;2023-07-31T12:02:17;15.57;;;2.97;;
11614;SDS011;5863;52.832;4.758;2023-07-31T12:04:45;9.75;;;3.20;;
11614;SDS011;5863;52.832;4.758;2023-07-31T12:07:13;9.30;;;3.42;;
11614;SDS011;5863;52.832;4.758;2023-07-31T12:09:50;9.45;;;3.38;;
11614;SDS011;5863;52.832;4.758;2023-07-31T12:12:19;9.95;;;3.08;;
11614;SDS011;5863;52.832;4.758;2023-07-31T12:14:47;12.43;;;3.30;;
11614;SDS011;5863;52.832;4.758;2023-07-31T12:17:17;13.20;;;3.30;;
11614;SDS011;5863;52.832;4.758;2023-07-31T12:19:45;10.90;;;3.33;;
11614;SDS011;5863;52.832;4.758;2023-07-31T12:22:12;14.90;;;3.58;;
11614;SDS011;5863;52.832;4.758;2023-07-31T12:24:39;12.23;;;3.50;;
11614;SDS011;5863;52.832;4.758;2023-07-31T12:27:09;12.70;;;4.15;;
11614;SDS011;5863;52.832;4.758;2023-07-31T12:29:37;14.18;;;3.33;;
11614;SDS011;5863;52.832;4.758;2023-07-31T12:32:04;12.20;;;2.95;;
11614;SDS011;5863;52.832;4.758;2023-07-31T12:34:45;12.80;;;3.13;;
11614;SDS011;5863;52.832;4.758;2023-07-31T12:37:11;13.95;;;3.42;;
11614;SDS011;5863;52.832;4.758;2023-07-31T12:39:38;12.07;;;3.35;;
11614;SDS011;5863;52.832;4.758;2023-07-31T12:42:05;11.00;;;3.47;;
11614;SDS011;5863;52.832;4.758;2023-07-31T12:44:32;9.98;;;2.90;;
11614;SDS011;5863;52.832;4.758;2023-07-31T12:46:59;10.30;;;3.17;;
11614;SDS011;5863;52.832;4.758;2023-07-31T12:49:27;12.15;;;3.05;;
11614;SDS011;5863;52.832;4.758;2023-07-31T12:51:53;9.98;;;2.90;;
11614;SDS011;5863;52.832;4.758;2023-07-31T12:54:20;11.73;;;3.08;;
11614;SDS011;5863;52.832;4.758;2023-07-31T12:56:47;12.45;;;3.58;;
11614;SDS011;5863;52.832;4.758;2023-07-31T12:59:14;12.93;;;3.40;;
11614;SDS011;5863;52.832;4.758;2023-07-31T13:01:41;10.50;;;2.92;;
11614;SDS011;5863;52.832;4.758;2023-07-31T13:04:07;9.77;;;3.33;;
11614;SDS011;5863;52.832;4.758;2023-07-31T13:06:35;12.85;;;3.58;;
11614;SDS011;5863;52.832;4.758;2023-07-31T13:09:02;10.43;;;3.20;;
11614;SDS011;5863;52.832;4.758;2023-07-31T13:11:29;12.52;;;3.20;;
11614;SDS011;5863;52.832;4.758;2023-07-31T13:13:56;11.82;;;3.15;;
11614;SDS011;5863;52.832;4.758;2023-07-31T13:16:22;11.13;;;3.13;;
11614;SDS011;5863;52.832;4.758;2023-07-31T13:18:49;12.77;;;3.17;;
11614;SDS011;5863;52.832;4.758;2023-07-31T13:21:16;10.95;;;3.13;;
11614;SDS011;5863;52.832;4.758;2023-07-31T13:23:44;11.95;;;3.20;;
11614;SDS011;5863;52.832;4.758;2023-07-31T13:26:11;11.13;;;3.10;;
11614;SDS011;5863;52.832;4.758;2023-07-31T13:28:38;10.90;;;3.22;;
11614;SDS011;5863;52.832;4.758;2023-07-31T13:31:04;8.40;;;3.10;;
11614;SDS011;5863;52.832;4.758;2023-07-31T13:33:31;11.73;;;2.67;;
11614;SDS011;5863;52.832;4.758;2023-07-31T13:35:58;14.18;;;3.28;;
11614;SDS011;5863;52.832;4.758;2023-07-31T13:38:24;10.82;;;2.78;;
11614;SDS011;5863;52.832;4.758;2023-07-31T13:40:52;9.20;;;2.25;;
11614;SDS011;5863;52.832;4.758;2023-07-31T13:43:19;9.88;;;2.60;;
11614;SDS011;5863;52.832;4.758;2023-07-31T13:45:46;8.75;;;2.88;;
11614;SDS011;5863;52.832;4.758;2023-07-31T13:48:12;10.15;;;2.88;;
11614;SDS011;5863;52.832;4.758;2023-07-31T13:50:39;7.22;;;2.33;;
11614;SDS011;5863;52.832;4.758;2023-07-31T13:53:06;9.60;;;2.80;;
11614;SDS011;5863;52.832;4.758;2023-07-31T13:55:32;8.35;;;2.55;;
11614;SDS011;5863;52.832;4.758;2023-07-31T13:58:00;9.55;;;2.88;;
11614;SDS011;5863;52.832;4.758;2023-07-31T14:00:27;8.65;;;2.65;;
11614;SDS011;5863;52.832;4.758;2023-07-31T14:02:54;12.65;;;3.17;;
11614;SDS011;5863;52.832;4.758;2023-07-31T14:05:21;9.05;;;3.10;;
11614;SDS011;5863;52.832;4.758;2023-07-31T14:07:48;9.27;;;2.78;;
11614;SDS011;5863;52.832;4.758;2023-07-31T14:10:15;7.60;;;2.40;;
11614;SDS011;5863;52.832;4.758;2023-07-31T14:12:41;8.43;;;2.75;;
11614;SDS011;5863;52.832;4.758;2023-07-31T14:15:10;6.38;;;2.28;;
11614;SDS011;5863;52.832;4.758;2023-07-31T14:17:36;8.25;;;2.28;;
11614;SDS011;5863;52.832;4.758;2023-07-31T14:20:03;11.75;;;2.53;;
11614;SDS011;5863;52.832;4.758;2023-07-31T14:22:31;10.65;;;2.20;;
11614;SDS011;5863;52.832;4.758;2023-07-31T14:24:59;7.50;;;2.30;;
11614;SDS011;5863;52.832;4.758;2023-07-31T14:27:25;7.00;;;2.10;;
11614;SDS011;5863;52.832;4.758;2023-07-31T14:29:52;6.47;;;2.05;;
11614;SDS011;5863;52.832;4.758;2023-07-31T14:32:20;5.35;;;2.22;;
11614;SDS011;5863;52.832;4.758;2023-07-31T14:34:48;6.85;;;2.15;;
11614;SDS011;5863;52.832;4.758;2023-07-31T14:37:15;7.03;;;2.60;;
11614;SDS011;5863;52.832;4.758;2023-07-31T14:39:41;9.90;;;2.20;;
11614;SDS011;5863;52.832;4.758;2023-07-31T14:42:08;12.38;;;2.20;;
11614;SDS011;5863;52.832;4.758;2023-07-31T14:44:35;8.63;;;2.97;;
11614;SDS011;5863;52.832;4.758;2023-07-31T14:47:02;10.93;;;2.83;;
11614;SDS011;5863;52.832;4.758;2023-07-31T14:49:30;10.00;;;2.63;;
11614;SDS011;5863;52.832;4.758;2023-07-31T14:51:56;5.75;;;2.30;;
11614;SDS011;5863;52.832;4.758;2023-07-31T14:54:23;11.02;;;2.78;;
11614;SDS011;5863;52.832;4.758;2023-07-31T14:56:50;8.23;;;2.63;;
11614;SDS011;5863;52.832;4.758;2023-07-31T14:59:16;10.48;;;3.00;;